createdAt,value
2018-10-17T00:01:39.751Z,100298.64
2018-10-17T00:04:08.025Z,100286.63
2018-10-17T00:06:36.138Z,100291.44
2018-10-17T00:09:06.178Z,100290.38
2018-10-17T00:11:34.457Z,100280.13
2018-10-17T00:14:02.377Z,100279.93
2018-10-17T00:16:30.787Z,100283.13
2018-10-17T00:18:58.933Z,100277.58
2018-10-17T00:21:27.118Z,100282.94
2018-10-17T00:23:55.259Z,100283.59
2018-10-17T00:26:23.523Z,100270.87
2018-10-17T00:28:51.826Z,100268.63
2018-10-17T00:31:19.854Z,100267.93
2018-10-17T00:33:47.882Z,100270.03
2018-10-17T00:36:16.024Z,100267.73
2018-10-17T00:38:44.247Z,100265.27
2018-10-17T00:41:12.141Z,100258.31
2018-10-17T00:43:40.366Z,100256.31
2018-10-17T00:46:08.317Z,100260.27
2018-10-17T00:48:35.994Z,100258.67
2018-10-17T00:51:03.817Z,100258.08
2018-10-17T00:53:31.446Z,100262.32
2018-10-17T00:55:59.183Z,100262.36
2018-10-17T00:58:27.435Z,100257.02
2018-10-17T01:00:55.525Z,100252.16
2018-10-17T01:03:23.707Z,100253.36
2018-10-17T01:05:51.872Z,100247.02
2018-10-17T01:08:19.603Z,100243.97
2018-10-17T01:10:47.799Z,100243.22
2018-10-17T01:13:16.094Z,100245.87
2018-10-17T01:15:44.252Z,100243.82
2018-10-17T01:18:12.293Z,100241.58
2018-10-17T01:20:40.275Z,100244.31
2018-10-17T01:23:08.386Z,100247.40
2018-10-17T01:25:36.593Z,100247.63
2018-10-17T01:28:04.740Z,100244.41
2018-10-17T01:30:32.738Z,100241.52
2018-10-17T01:33:00.974Z,100243.22
2018-10-17T01:35:29.302Z,100242.22
2018-10-17T01:37:57.563Z,100243.66
2018-10-17T01:40:25.693Z,100241.91
2018-10-17T01:42:53.985Z,100242.61
2018-10-17T01:45:22.351Z,100240.87
2018-10-17T01:47:50.482Z,100239.36
2018-10-17T01:50:18.735Z,100243.36
2018-10-17T01:52:46.966Z,100233.37
2018-10-17T01:55:14.965Z,100235.47
2018-10-17T01:57:43.147Z,100231.11
2018-10-17T02:00:11.727Z,100227.76
2018-10-17T02:02:40.438Z,100228.77
2018-10-17T02:05:08.485Z,100230.40
2018-10-17T02:07:36.739Z,100227.55
2018-10-17T02:10:04.780Z,100220.15
2018-10-17T02:12:33.039Z,100223.60
2018-10-17T02:15:01.258Z,100219.48
2018-10-17T02:17:29.359Z,100215.59
2018-10-17T02:19:57.463Z,100220.02
2018-10-17T02:22:25.631Z,100216.17
2018-10-17T02:24:54.013Z,100214.94
2018-10-17T02:27:22.291Z,100213.38
2018-10-17T02:29:50.466Z,100213.93
2018-10-17T02:32:18.355Z,100216.63
2018-10-17T02:34:51.659Z,100216.34
2018-10-17T02:37:20.235Z,100213.91
2018-10-17T02:39:49.204Z,100217.70
2018-10-17T02:42:17.234Z,100224.45
2018-10-17T02:44:45.503Z,100225.53
2018-10-17T02:47:13.899Z,100219.70
2018-10-17T02:49:42.303Z,100219.44
2018-10-17T02:52:10.375Z,100223.87
2018-10-17T02:54:38.624Z,100221.53
2018-10-17T02:57:06.927Z,100218.06
2018-10-17T02:59:34.930Z,100215.67
2018-10-17T03:02:03.051Z,100227.42
2018-10-17T03:04:31.348Z,100228.16
2018-10-17T03:06:59.642Z,100226.46
2018-10-17T03:09:28.038Z,100220.75
2018-10-17T03:11:56.199Z,100220.56
2018-10-17T03:14:24.295Z,100222.95
2018-10-17T03:16:52.726Z,100222.45
2018-10-17T03:19:21.043Z,100219.30
2018-10-17T03:21:49.253Z,100222.40
2018-10-17T03:24:17.547Z,100223.78
2018-10-17T03:26:45.624Z,100234.03
2018-10-17T03:29:13.727Z,100231.99
2018-10-17T03:31:42.140Z,100235.19
2018-10-17T03:34:10.279Z,100235.53
2018-10-17T03:36:38.789Z,100236.22
2018-10-17T03:39:09.620Z,100222.59
2018-10-17T03:41:37.755Z,100222.21
2018-10-17T03:44:05.993Z,100220.48
2018-10-17T03:46:34.544Z,100215.95
2018-10-17T03:49:02.291Z,100217.30
2018-10-17T03:51:30.391Z,100213.55
2018-10-17T03:53:58.367Z,100212.17
2018-10-17T03:56:26.798Z,100211.74
2018-10-17T03:58:55.132Z,100208.16
2018-10-17T04:01:23.571Z,100200.33
2018-10-17T04:03:51.802Z,100200.23
2018-10-17T04:06:20.444Z,100203.91
2018-10-17T04:08:48.530Z,100199.45
2018-10-17T04:11:16.950Z,100208.47
2018-10-17T04:13:45.043Z,100206.27
2018-10-17T04:16:12.972Z,100211.70
2018-10-17T04:18:40.982Z,100218.32
2018-10-17T04:21:08.879Z,100219.02
2018-10-17T04:23:36.787Z,100219.08
2018-10-17T04:26:04.863Z,100225.47
2018-10-17T04:28:33.259Z,100226.16
2018-10-17T04:31:01.436Z,100226.16
2018-10-17T04:33:29.835Z,100237.95
2018-10-17T04:35:58.304Z,100237.60
2018-10-17T04:38:26.340Z,100239.27
2018-10-17T04:40:54.338Z,100236.59
2018-10-17T04:43:22.644Z,100239.11
2018-10-17T04:45:50.862Z,100242.99
2018-10-17T04:48:19.188Z,100238.30
2018-10-17T04:50:47.278Z,100239.05
2018-10-17T04:53:15.623Z,100243.21
2018-10-17T04:55:43.515Z,100241.89
2018-10-17T04:58:11.624Z,100239.48
2018-10-17T05:00:39.951Z,100247.16
2018-10-17T05:03:08.123Z,100247.81
2018-10-17T05:05:36.219Z,100248.11
2018-10-17T05:08:04.562Z,100241.36
2018-10-17T05:10:32.266Z,100240.23
2018-10-17T05:13:00.283Z,100233.78
2018-10-17T05:15:28.538Z,100227.77
2018-10-17T05:17:56.770Z,100221.64
2018-10-17T05:20:25.112Z,100216.80
2018-10-17T05:22:53.374Z,100217.13
2018-10-17T05:25:21.595Z,100214.66
2018-10-17T05:27:49.469Z,100204.60
2018-10-17T05:30:17.361Z,100199.46
2018-10-17T05:32:45.726Z,100197.98
2018-10-17T05:35:13.779Z,100201.58
2018-10-17T05:37:42.017Z,100205.83
2018-10-17T05:40:10.158Z,100207.44
2018-10-17T05:42:38.127Z,100215.09
2018-10-17T05:45:07.034Z,100225.95
2018-10-17T05:47:35.311Z,100220.09
2018-10-17T05:50:03.580Z,100222.19
2018-10-17T05:52:32.019Z,100226.34
2018-10-17T05:55:00.362Z,100222.59
2018-10-17T05:57:28.577Z,100218.12
2018-10-17T05:59:57.096Z,100215.29
2018-10-17T06:02:28.695Z,100221.98
2018-10-17T06:04:56.891Z,100222.82
2018-10-17T06:07:24.996Z,100225.86
2018-10-17T06:09:53.404Z,100218.62
2018-10-17T06:12:21.560Z,100214.45
2018-10-17T06:14:49.554Z,100216.13
2018-10-17T06:17:17.923Z,100217.77
2018-10-17T06:19:46.140Z,100220.34
2018-10-17T06:22:14.395Z,100224.39
2018-10-17T06:24:42.711Z,100233.34
2018-10-17T06:27:11.191Z,100232.41
2018-10-17T06:29:39.272Z,100237.39
2018-10-17T06:32:07.536Z,100231.36
2018-10-17T06:34:36.067Z,100234.42
2018-10-17T06:37:04.463Z,100231.84
2018-10-17T06:39:32.502Z,100231.21
2018-10-17T06:42:00.688Z,100241.54
2018-10-17T06:44:28.708Z,100237.23
2018-10-17T06:46:56.969Z,100246.12
2018-10-17T06:49:25.244Z,100254.11
2018-10-17T06:51:53.566Z,100252.45
2018-10-17T06:54:21.755Z,100246.41
2018-10-17T06:56:49.896Z,100240.06
2018-10-17T06:59:18.232Z,100237.88
2018-10-17T07:01:46.465Z,100229.96
2018-10-17T07:04:14.484Z,100226.00
2018-10-17T07:06:42.342Z,100219.73
2018-10-17T07:09:10.621Z,100223.20
2018-10-17T07:11:38.872Z,100217.48
2018-10-17T07:14:06.995Z,100220.86
2018-10-17T07:16:36.095Z,100219.05
2018-10-17T07:19:04.456Z,100224.40
2018-10-17T07:21:32.606Z,100225.48
2018-10-17T07:24:00.647Z,100224.66
2018-10-17T07:26:28.611Z,100223.09
2018-10-17T07:28:57.111Z,100218.75
2018-10-17T07:31:25.359Z,100218.89
2018-10-17T07:33:53.611Z,100215.34
2018-10-17T07:36:21.892Z,100214.72
2018-10-17T07:38:49.967Z,100208.53
2018-10-17T07:41:18.310Z,100201.78
2018-10-17T07:43:46.488Z,100194.10
2018-10-17T07:46:14.705Z,100197.83
2018-10-17T07:48:42.821Z,100197.61
2018-10-17T07:51:11.084Z,100190.88
2018-10-17T07:53:38.817Z,100198.20
2018-10-17T07:56:06.602Z,100189.55
2018-10-17T07:58:34.658Z,100187.83
2018-10-17T08:01:03.044Z,100188.77
2018-10-17T08:03:31.335Z,100187.33
2018-10-17T08:05:59.549Z,100186.55
2018-10-17T08:08:27.819Z,100190.80
2018-10-17T08:10:56.290Z,100193.69
2018-10-17T08:13:24.395Z,100195.16
2018-10-17T08:15:52.891Z,100204.28
2018-10-17T08:18:21.187Z,100211.25
2018-10-17T08:20:49.199Z,100225.44
2018-10-17T08:23:17.463Z,100230.37
2018-10-17T08:25:45.750Z,100231.56
2018-10-17T08:28:14.178Z,100232.78
2018-10-17T08:30:42.287Z,100242.33
2018-10-17T08:33:10.595Z,100248.23
2018-10-17T08:35:38.709Z,100246.53
2018-10-17T08:38:06.874Z,100242.36
2018-10-17T08:40:35.067Z,100243.84
2018-10-17T08:43:03.235Z,100244.13
2018-10-17T08:45:31.324Z,100241.64
2018-10-17T08:47:59.254Z,100242.89
2018-10-17T08:50:27.685Z,100236.63
2018-10-17T08:52:55.737Z,100237.53
2018-10-17T08:55:23.603Z,100234.66
2018-10-17T08:57:51.835Z,100232.88
2018-10-17T09:00:20.004Z,100232.83
2018-10-17T09:02:48.067Z,100229.20
2018-10-17T09:05:16.175Z,100228.94
2018-10-17T09:07:44.434Z,100240.27
2018-10-17T09:10:12.732Z,100224.29
2018-10-17T09:12:40.931Z,100223.17
2018-10-17T09:15:09.179Z,100222.52
2018-10-17T09:17:37.150Z,100231.19
2018-10-17T09:20:06.349Z,100237.00
2018-10-17T09:22:34.765Z,100230.10
2018-10-17T09:25:02.618Z,100240.70
2018-10-17T09:27:30.496Z,100238.03
2018-10-17T09:29:58.222Z,100236.27
2018-10-17T09:32:25.966Z,100228.52
2018-10-17T09:34:53.714Z,100222.19
2018-10-17T09:37:21.521Z,100218.83
2018-10-17T09:39:49.219Z,100221.88
2018-10-17T09:42:16.991Z,100212.02
2018-10-17T09:44:44.619Z,100209.27
2018-10-17T09:47:12.382Z,100214.98
2018-10-17T09:49:40.151Z,100208.00
2018-10-17T09:52:07.879Z,100204.20
2018-10-17T09:54:35.719Z,100202.14
2018-10-17T09:57:03.528Z,100197.55
2018-10-17T09:59:31.295Z,100196.73
2018-10-17T10:01:59.019Z,100180.44
2018-10-17T10:04:27.943Z,100179.20
2018-10-17T10:06:55.881Z,100181.75
2018-10-17T10:09:24.175Z,100178.27
2018-10-17T10:11:52.170Z,100177.62
2018-10-17T10:14:20.479Z,100179.69
2018-10-17T10:16:48.796Z,100166.03
2018-10-17T10:19:17.227Z,100166.51
2018-10-17T10:21:45.524Z,100178.66
2018-10-17T10:24:14.141Z,100172.09
2018-10-17T10:26:42.188Z,100160.11
2018-10-17T10:29:10.534Z,100160.95
2018-10-17T10:31:38.875Z,100149.65
2018-10-17T10:34:07.368Z,100143.55
2018-10-17T10:36:35.566Z,100132.73
2018-10-17T10:39:06.218Z,100121.56
2018-10-17T10:41:34.579Z,100121.36
2018-10-17T10:44:03.377Z,100114.87
2018-10-17T10:46:31.650Z,100115.44
2018-10-17T10:49:00.077Z,100119.76
2018-10-17T10:51:28.323Z,100123.59
2018-10-17T10:53:56.154Z,100127.66
2018-10-17T10:56:23.922Z,100127.58
2018-10-17T10:58:52.105Z,100132.80
2018-10-17T11:01:20.065Z,100131.58
2018-10-17T11:03:47.837Z,100126.88
2018-10-17T11:06:15.571Z,100121.63
2018-10-17T11:08:43.352Z,100120.16
2018-10-17T11:11:11.239Z,100111.02
2018-10-17T11:13:38.960Z,100102.50
2018-10-17T11:16:06.720Z,100101.61
2018-10-17T11:18:34.452Z,100104.80
2018-10-17T11:21:02.234Z,100115.91
2018-10-17T11:23:29.981Z,100112.23
2018-10-17T11:25:57.991Z,100108.88
2018-10-17T11:28:26.385Z,100103.13
2018-10-17T11:30:54.408Z,100104.34
2018-10-17T11:33:22.120Z,100111.84
2018-10-17T11:35:49.867Z,100111.48
2018-10-17T11:38:17.595Z,100113.05
2018-10-17T11:40:45.902Z,100100.51
2018-10-17T11:43:14.284Z,100097.92
2018-10-17T11:45:42.588Z,100100.05
2018-10-17T11:48:11.101Z,100100.39
2018-10-17T11:50:39.366Z,100091.42
2018-10-17T11:53:07.591Z,100092.00
2018-10-17T11:55:35.900Z,100089.48
2018-10-17T11:58:04.243Z,100088.28
2018-10-17T12:00:32.056Z,100087.66
2018-10-17T12:02:59.863Z,100083.09
2018-10-17T12:05:28.300Z,100084.73
2018-10-17T12:07:56.507Z,100078.55
2018-10-17T12:10:24.804Z,100076.88
2018-10-17T12:12:52.640Z,100078.18
2018-10-17T12:15:20.584Z,100074.23
2018-10-17T12:17:48.455Z,100074.11
2018-10-17T12:20:16.316Z,100071.31
2018-10-17T12:22:44.839Z,100070.74
2018-10-17T12:25:13.270Z,100065.97
2018-10-17T12:27:41.265Z,100069.18
2018-10-17T12:30:12.511Z,100068.17
2018-10-17T12:32:40.327Z,100062.36
2018-10-17T12:35:08.306Z,100064.64
2018-10-17T12:37:36.727Z,100056.67
2018-10-17T12:40:05.639Z,100059.66
2018-10-17T12:42:33.499Z,100061.81
2018-10-17T12:45:01.411Z,100067.19
2018-10-17T12:47:29.380Z,100066.58
2018-10-17T12:49:57.240Z,100063.59
2018-10-17T12:52:25.152Z,100055.27
2018-10-17T12:54:53.057Z,100058.59
2018-10-17T12:57:20.892Z,100062.83
2018-10-17T12:59:48.771Z,100060.70
2018-10-17T13:02:16.616Z,100062.86
2018-10-17T13:04:44.467Z,100067.22
2018-10-17T13:07:12.405Z,100064.27
2018-10-17T13:09:40.234Z,100062.36
2018-10-17T13:12:08.465Z,100067.36
2018-10-17T13:14:36.355Z,100061.84
2018-10-17T13:17:04.246Z,100068.62
2018-10-17T13:19:32.105Z,100065.44
2018-10-17T13:22:00.539Z,100052.53
2018-10-17T13:24:28.425Z,100046.36
2018-10-17T13:26:56.246Z,100049.41
2018-10-17T13:29:24.112Z,100050.13
2018-10-17T13:31:52.559Z,100046.80
2018-10-17T13:34:20.887Z,100048.59
2018-10-17T13:36:49.324Z,100041.10
2018-10-17T13:39:17.551Z,100038.41
2018-10-17T13:41:46.043Z,100037.16
2018-10-17T13:44:14.335Z,100031.52
2018-10-17T13:46:42.781Z,100032.90
2018-10-17T13:49:11.195Z,100037.81
2018-10-17T13:51:39.592Z,100033.13
2018-10-17T13:54:07.352Z,100030.13
2018-10-17T13:56:35.147Z,100022.91
2018-10-17T13:59:03.046Z,100020.88
2018-10-17T14:01:30.829Z,100025.80
2018-10-17T14:03:58.617Z,100022.30
2018-10-17T14:06:26.510Z,100016.42
2018-10-17T14:08:54.331Z,100027.09
2018-10-17T14:11:22.156Z,100026.55
2018-10-17T14:13:49.984Z,100031.02
2018-10-17T14:16:17.765Z,100030.86
2018-10-17T14:18:45.538Z,100030.34
2018-10-17T14:21:13.388Z,100026.03
2018-10-17T14:23:41.180Z,100023.55
2018-10-17T14:26:08.971Z,100028.28
2018-10-17T14:28:36.814Z,100029.55
2018-10-17T14:31:04.667Z,100026.23
2018-10-17T14:33:32.463Z,100028.14
2018-10-17T14:36:00.291Z,100027.28
2018-10-17T14:38:28.097Z,100026.30
2018-10-17T14:40:55.971Z,100023.87
2018-10-17T14:43:23.751Z,100015.07
2018-10-17T14:45:51.522Z,100015.28
2018-10-17T14:48:19.382Z,100013.23
2018-10-17T14:50:47.148Z,100010.66
2018-10-17T14:53:15.022Z,100002.68
2018-10-17T14:55:43.466Z,100009.16
2018-10-17T14:58:11.775Z,100005.71
2018-10-17T15:00:40.377Z,100000.49
2018-10-17T15:03:08.967Z,100002.08
2018-10-17T15:05:36.751Z,100004.36
2018-10-17T15:08:05.235Z,100012.47
2018-10-17T15:10:33.606Z,100013.66
2018-10-17T15:13:02.060Z,100020.33
2018-10-17T15:15:30.259Z,100005.45
2018-10-17T15:17:58.768Z,99997.31
2018-10-17T15:20:27.023Z,100004.83
2018-10-17T15:22:55.187Z,99997.66
2018-10-17T15:25:23.368Z,99996.28
2018-10-17T15:27:51.419Z,99997.82
2018-10-17T15:30:19.749Z,100000.66
2018-10-17T15:32:47.798Z,100012.07
2018-10-17T15:35:16.400Z,100013.19
2018-10-17T15:37:44.756Z,100020.68
2018-10-17T15:40:13.000Z,100023.17
2018-10-17T15:42:40.809Z,100027.64
2018-10-17T15:45:08.675Z,100034.86
2018-10-17T15:47:36.405Z,100021.00
2018-10-17T15:50:04.348Z,100023.42
2018-10-17T15:52:32.460Z,100031.06
2018-10-17T15:55:00.139Z,100030.83
2018-10-17T15:57:27.858Z,100024.25
2018-10-17T15:59:55.635Z,100024.09
2018-10-17T16:02:23.469Z,100029.39
2018-10-17T16:04:51.939Z,100027.85
2018-10-17T16:07:19.719Z,100024.36
2018-10-17T16:09:47.496Z,100037.57
2018-10-17T16:12:15.878Z,100031.34
2018-10-17T16:14:43.610Z,100026.87
2018-10-17T16:17:11.752Z,100033.12
2018-10-17T16:19:39.627Z,100033.22
2018-10-17T16:22:07.413Z,100037.64
2018-10-17T16:24:35.415Z,100031.25
2018-10-17T16:27:03.246Z,100024.02
2018-10-17T16:29:30.990Z,100025.05
2018-10-17T16:31:58.818Z,100032.94
2018-10-17T16:34:26.926Z,100030.34
2018-10-17T16:36:54.716Z,100039.01
2018-10-17T16:39:22.467Z,100027.92
2018-10-17T16:41:50.299Z,100032.50
2018-10-17T16:44:18.114Z,100039.89
2018-10-17T16:46:45.849Z,100038.28
2018-10-17T16:49:13.671Z,100036.39
2018-10-17T16:51:41.439Z,100031.27
2018-10-17T16:54:09.204Z,100029.30
2018-10-17T16:56:37.521Z,100027.39
2018-10-17T16:59:06.062Z,100024.37
2018-10-17T17:01:34.253Z,100031.11
2018-10-17T17:04:02.062Z,100026.26
2018-10-17T17:06:29.847Z,100024.13
2018-10-17T17:08:57.691Z,100032.59
2018-10-17T17:11:25.555Z,100020.67
2018-10-17T17:13:53.291Z,100020.52
2018-10-17T17:16:21.150Z,100016.26
2018-10-17T17:18:48.985Z,100010.89
2018-10-17T17:21:17.127Z,100010.98
2018-10-17T17:23:44.873Z,100008.69
2018-10-17T17:26:12.691Z,100013.37
2018-10-17T17:28:40.438Z,100011.13
2018-10-17T17:31:08.226Z,100021.50
2018-10-17T17:33:36.007Z,100018.53
2018-10-17T17:36:03.913Z,100012.31
2018-10-17T17:38:31.646Z,100006.13
2018-10-17T17:40:59.438Z,100010.22
2018-10-17T17:43:27.182Z,100012.27
2018-10-17T17:45:54.955Z,100012.56
2018-10-17T17:48:22.806Z,100010.81
2018-10-17T17:50:50.951Z,100008.56
2018-10-17T17:53:19.611Z,100009.77
2018-10-17T17:55:47.961Z,100014.77
2018-10-17T17:58:16.415Z,100018.45
2018-10-17T18:00:44.663Z,100020.50
2018-10-17T18:03:13.265Z,100020.22
2018-10-17T18:05:41.641Z,100028.22
2018-10-17T18:08:10.034Z,100023.02
2018-10-17T18:10:37.850Z,100025.52
2018-10-17T18:13:05.675Z,100022.63
2018-10-17T18:15:33.484Z,100026.56
2018-10-17T18:18:01.275Z,100026.16
2018-10-17T18:20:29.018Z,100025.02
2018-10-17T18:22:57.505Z,100026.43
2018-10-17T18:25:25.834Z,100022.91
2018-10-17T18:27:54.705Z,100018.85
2018-10-17T18:30:22.462Z,100019.25
2018-10-17T18:32:50.273Z,100016.81
2018-10-17T18:35:18.493Z,100014.12
2018-10-17T18:37:46.995Z,100013.70
2018-10-17T18:40:15.205Z,100024.32
2018-10-17T18:42:43.531Z,100021.06
2018-10-17T18:45:11.823Z,100017.50
2018-10-17T18:47:40.356Z,100015.25
2018-10-17T18:50:08.734Z,100008.30
2018-10-17T18:52:38.134Z,100020.53
2018-10-17T18:55:07.176Z,100014.38
2018-10-17T18:57:35.504Z,100013.63
2018-10-17T19:00:04.106Z,100026.59
2018-10-17T19:02:32.642Z,100020.73
2018-10-17T19:05:00.877Z,100024.47
2018-10-17T19:07:29.380Z,100018.61
2018-10-17T19:09:57.679Z,100015.64
2018-10-17T19:12:25.464Z,100016.45
2018-10-17T19:14:53.260Z,100011.96
2018-10-17T19:17:21.127Z,100015.30
2018-10-17T19:19:48.957Z,100013.73
2018-10-17T19:22:16.756Z,100015.77
2018-10-17T19:24:44.661Z,100020.59
2018-10-17T19:27:12.543Z,100022.67
2018-10-17T19:29:40.275Z,100022.48
2018-10-17T19:32:08.210Z,100023.25
2018-10-17T19:34:35.982Z,100015.97
2018-10-17T19:37:03.793Z,100018.35
2018-10-17T19:39:31.652Z,100022.98
2018-10-17T19:42:00.193Z,100011.75
2018-10-17T19:44:28.361Z,100013.07
2018-10-17T19:46:56.778Z,100020.78
2018-10-17T19:49:25.436Z,100014.13
2018-10-17T19:51:53.842Z,100019.78
2018-10-17T19:54:22.207Z,100013.13
2018-10-17T19:56:50.590Z,100023.03
2018-10-17T19:59:19.072Z,100017.94
2018-10-17T20:01:47.368Z,100015.36
2018-10-17T20:04:15.796Z,100020.25
2018-10-17T20:06:44.092Z,100016.45
2018-10-17T20:09:12.697Z,100019.98
2018-10-17T20:11:40.885Z,100018.12
2018-10-17T20:14:09.459Z,100025.32
2018-10-17T20:16:37.574Z,100022.31
2018-10-17T20:19:06.108Z,100020.04
2018-10-17T20:21:34.368Z,100019.25
2018-10-17T20:24:02.276Z,100020.09
2018-10-17T20:26:30.057Z,100017.83
2018-10-17T20:28:58.380Z,100016.39
2018-10-17T20:31:26.743Z,100017.28
2018-10-17T20:33:55.116Z,100012.34
2018-10-17T20:36:23.414Z,100007.95
2018-10-17T20:38:51.897Z,100013.66
2018-10-17T20:41:20.178Z,100013.66
2018-10-17T20:43:48.623Z,100008.31
2018-10-17T20:46:16.973Z,100012.34
2018-10-17T20:48:45.393Z,100004.52
2018-10-17T20:51:13.647Z,100004.75
2018-10-17T20:53:42.218Z,100002.36
2018-10-17T20:56:10.439Z,99996.86
2018-10-17T20:58:38.895Z,99993.70
2018-10-17T21:01:06.728Z,99996.56
2018-10-17T21:03:35.056Z,100002.22
2018-10-17T21:06:03.554Z,100003.32
2018-10-17T21:08:31.863Z,99998.86
2018-10-17T21:11:00.309Z,100000.45
2018-10-17T21:13:28.565Z,99999.98
2018-10-17T21:15:57.085Z,99996.80
2018-10-17T21:18:25.397Z,99994.44
2018-10-17T21:20:53.795Z,99986.47
2018-10-17T21:23:21.595Z,99991.16
2018-10-17T21:25:49.360Z,99987.74
2018-10-17T21:28:17.109Z,99992.38
2018-10-17T21:30:44.936Z,99987.78
2018-10-17T21:33:12.714Z,99989.70
2018-10-17T21:35:40.477Z,99984.88
2018-10-17T21:38:08.302Z,99982.45
2018-10-17T21:40:36.107Z,99976.11
2018-10-17T21:43:04.161Z,99972.30
2018-10-17T21:45:31.983Z,99975.50
2018-10-17T21:47:59.772Z,99971.31
2018-10-17T21:50:27.562Z,99966.08
2018-10-17T21:52:55.377Z,99963.34
2018-10-17T21:55:23.170Z,99963.82
2018-10-17T21:57:51.141Z,99962.88
2018-10-17T22:00:19.031Z,99956.22
2018-10-17T22:02:46.822Z,99960.98
2018-10-17T22:05:15.202Z,99959.80
2018-10-17T22:07:43.514Z,99966.67
2018-10-17T22:10:11.945Z,99976.17
2018-10-17T22:12:40.410Z,99974.85
2018-10-17T22:15:09.344Z,99971.30
2018-10-17T22:17:37.773Z,99969.68
2018-10-17T22:20:06.653Z,99968.94
2018-10-17T22:22:34.827Z,99973.49
2018-10-17T22:25:03.283Z,99969.83
2018-10-17T22:27:31.508Z,99957.56
2018-10-17T22:30:00.084Z,99958.37
2018-10-17T22:32:28.271Z,99955.84
2018-10-17T22:34:56.904Z,99963.09
2018-10-17T22:37:24.984Z,99958.41
2018-10-17T22:39:53.383Z,99973.80
2018-10-17T22:42:21.542Z,99967.96
2018-10-17T22:44:49.619Z,99965.77
2018-10-17T22:47:17.984Z,99966.30
2018-10-17T22:49:46.207Z,99972.05
2018-10-17T22:52:14.519Z,99973.00
2018-10-17T22:54:42.919Z,99968.09
2018-10-17T22:57:11.219Z,99970.70
2018-10-17T22:59:39.135Z,99977.80
2018-10-17T23:02:07.363Z,99974.47
2018-10-17T23:04:35.631Z,99969.37
2018-10-17T23:07:04.176Z,99973.00
2018-10-17T23:09:32.406Z,99969.95
2018-10-17T23:12:00.670Z,99971.22
2018-10-17T23:14:28.989Z,99967.52
2018-10-17T23:16:57.240Z,99964.64
2018-10-17T23:19:25.484Z,99957.20
2018-10-17T23:21:53.831Z,99947.03
2018-10-17T23:24:22.049Z,99942.38
2018-10-17T23:26:50.273Z,99939.23
2018-10-17T23:29:18.623Z,99937.23
2018-10-17T23:31:46.883Z,99937.65
2018-10-17T23:34:15.388Z,99946.36
2018-10-17T23:36:43.673Z,99942.38
2018-10-17T23:39:11.895Z,99931.56
2018-10-17T23:41:40.463Z,99937.35
2018-10-17T23:44:08.801Z,99934.89
2018-10-17T23:46:37.141Z,99932.31
2018-10-17T23:49:05.560Z,99935.13
2018-10-17T23:51:33.928Z,99932.51
2018-10-17T23:54:02.187Z,99936.06
2018-10-17T23:56:30.407Z,99936.91
2018-10-17T23:58:58.758Z,99936.27
